sensor_id;sensor_type;location;lat;lon;timestamp;temperature;humidity
35603;DHT22;21725;50.836;4.368;2023-10-09T00:01:33;21.00;99.30
35603;DHT22;21725;50.836;4.368;2023-10-09T00:04:46;20.90;99.50
35603;DHT22;21725;50.836;4.368;2023-10-09T00:08:09;21.00;99.60
35603;DHT22;21725;50.836;4.368;2023-10-09T00:11:38;20.80;99.80
35603;DHT22;21725;50.836;4.368;2023-10-09T00:18:03;20.70;99.90
35603;DHT22;21725;50.836;4.368;2023-10-09T00:21:19;20.60;99.90
35603;DHT22;21725;50.836;4.368;2023-10-09T00:24:27;20.70;99.90
35603;DHT22;21725;50.836;4.368;2023-10-09T00:27:43;20.70;99.90
35603;DHT22;21725;50.836;4.368;2023-10-09T00:30:53;20.60;99.90
35603;DHT22;21725;50.836;4.368;2023-10-09T00:33:59;20.60;99.90
35603;DHT22;21725;50.836;4.368;2023-10-09T00:37:10;20.70;99.90
35603;DHT22;21725;50.836;4.368;2023-10-09T00:40:30;20.90;99.60
35603;DHT22;21725;50.836;4.368;2023-10-09T00:43:53;20.90;99.50
35603;DHT22;21725;50.836;4.368;2023-10-09T00:47:07;20.80;99.70
35603;DHT22;21725;50.836;4.368;2023-10-09T00:50:20;20.60;99.90
35603;DHT22;21725;50.836;4.368;2023-10-09T00:53:45;20.60;99.90
35603;DHT22;21725;50.836;4.368;2023-10-09T01:00:27;20.40;99.90
35603;DHT22;21725;50.836;4.368;2023-10-09T01:03:48;20.40;99.90
35603;DHT22;21725;50.836;4.368;2023-10-09T01:06:53;20.40;99.90
35603;DHT22;21725;50.836;4.368;2023-10-09T01:10:16;20.30;99.90
35603;DHT22;21725;50.836;4.368;2023-10-09T01:13:27;20.20;99.90
35603;DHT22;21725;50.836;4.368;2023-10-09T01:16:44;20.10;99.90
35603;DHT22;21725;50.836;4.368;2023-10-09T01:20:21;20.10;99.90
35603;DHT22;21725;50.836;4.368;2023-10-09T01:23:33;20.10;99.90
35603;DHT22;21725;50.836;4.368;2023-10-09T01:26:42;20.00;99.90
35603;DHT22;21725;50.836;4.368;2023-10-09T01:29:57;20.00;99.90
35603;DHT22;21725;50.836;4.368;2023-10-09T01:33:03;20.10;99.90
35603;DHT22;21725;50.836;4.368;2023-10-09T01:36:18;20.00;99.90
35603;DHT22;21725;50.836;4.368;2023-10-09T01:39:21;19.90;99.90
35603;DHT22;21725;50.836;4.368;2023-10-09T01:42:42;19.80;99.90
35603;DHT22;21725;50.836;4.368;2023-10-09T01:45:54;19.80;99.90
35603;DHT22;21725;50.836;4.368;2023-10-09T01:48:55;19.90;99.90
35603;DHT22;21725;50.836;4.368;2023-10-09T01:52:04;19.90;99.90
35603;DHT22;21725;50.836;4.368;2023-10-09T01:55:23;19.90;99.90
35603;DHT22;21725;50.836;4.368;2023-10-09T01:58:38;20.00;99.90
35603;DHT22;21725;50.836;4.368;2023-10-09T02:01:39;19.90;99.90
35603;DHT22;21725;50.836;4.368;2023-10-09T02:04:50;20.00;99.90
35603;DHT22;21725;50.836;4.368;2023-10-09T02:08:03;19.90;99.90
35603;DHT22;21725;50.836;4.368;2023-10-09T02:11:07;20.00;99.90
35603;DHT22;21725;50.836;4.368;2023-10-09T02:17:46;20.10;99.70
35603;DHT22;21725;50.836;4.368;2023-10-09T02:31:20;20.10;99.70
35603;DHT22;21725;50.836;4.368;2023-10-09T02:34:26;20.20;99.50
35603;DHT22;21725;50.836;4.368;2023-10-09T02:37:40;20.10;99.70
35603;DHT22;21725;50.836;4.368;2023-10-09T02:40:50;20.20;99.60
35603;DHT22;21725;50.836;4.368;2023-10-09T02:44:15;20.00;99.80
35603;DHT22;21725;50.836;4.368;2023-10-09T02:47:24;19.80;99.90
35603;DHT22;21725;50.836;4.368;2023-10-09T02:50:37;19.80;99.90
35603;DHT22;21725;50.836;4.368;2023-10-09T02:54:14;19.80;99.90
35603;DHT22;21725;50.836;4.368;2023-10-09T02:57:39;19.80;99.90
35603;DHT22;21725;50.836;4.368;2023-10-09T03:00:42;19.80;99.90
35603;DHT22;21725;50.836;4.368;2023-10-09T03:03:49;19.80;99.90
35603;DHT22;21725;50.836;4.368;2023-10-09T03:10:25;19.70;99.90
35603;DHT22;21725;50.836;4.368;2023-10-09T03:13:34;19.60;99.90
35603;DHT22;21725;50.836;4.368;2023-10-09T03:16:48;19.50;99.90
35603;DHT22;21725;50.836;4.368;2023-10-09T03:19:51;19.60;99.90
35603;DHT22;21725;50.836;4.368;2023-10-09T03:23:02;19.50;99.90
35603;DHT22;21725;50.836;4.368;2023-10-09T03:26:23;19.50;99.90
35603;DHT22;21725;50.836;4.368;2023-10-09T03:29:28;19.50;99.90
35603;DHT22;21725;50.836;4.368;2023-10-09T03:32:40;19.50;99.90
35603;DHT22;21725;50.836;4.368;2023-10-09T03:35:51;19.50;99.90
35603;DHT22;21725;50.836;4.368;2023-10-09T03:39:04;19.40;99.90
35603;DHT22;21725;50.836;4.368;2023-10-09T03:42:27;19.30;99.90
35603;DHT22;21725;50.836;4.368;2023-10-09T03:45:33;19.40;99.90
35603;DHT22;21725;50.836;4.368;2023-10-09T03:52:23;19.30;99.90
35603;DHT22;21725;50.836;4.368;2023-10-09T03:55:27;19.40;99.90
35603;DHT22;21725;50.836;4.368;2023-10-09T03:58:37;19.30;99.90
35603;DHT22;21725;50.836;4.368;2023-10-09T04:01:45;19.30;99.90
35603;DHT22;21725;50.836;4.368;2023-10-09T04:05:10;19.20;99.90
35603;DHT22;21725;50.836;4.368;2023-10-09T04:08:14;19.30;99.90
35603;DHT22;21725;50.836;4.368;2023-10-09T04:11:28;19.40;99.90
35603;DHT22;21725;50.836;4.368;2023-10-09T04:14:43;19.40;99.90
35603;DHT22;21725;50.836;4.368;2023-10-09T04:18:14;19.40;99.90
35603;DHT22;21725;50.836;4.368;2023-10-09T04:21:28;19.30;99.90
35603;DHT22;21725;50.836;4.368;2023-10-09T04:24:39;19.20;99.90
35603;DHT22;21725;50.836;4.368;2023-10-09T04:27:48;19.20;99.90
35603;DHT22;21725;50.836;4.368;2023-10-09T04:31:02;19.30;99.90
35603;DHT22;21725;50.836;4.368;2023-10-09T04:34:09;19.30;99.90
35603;DHT22;21725;50.836;4.368;2023-10-09T04:37:37;19.30;99.90
35603;DHT22;21725;50.836;4.368;2023-10-09T04:41:00;19.30;99.90
35603;DHT22;21725;50.836;4.368;2023-10-09T04:44:08;19.30;99.90
35603;DHT22;21725;50.836;4.368;2023-10-09T04:47:37;19.30;99.90
35603;DHT22;21725;50.836;4.368;2023-10-09T04:50:38;19.40;99.90
35603;DHT22;21725;50.836;4.368;2023-10-09T04:53:59;19.40;99.90
35603;DHT22;21725;50.836;4.368;2023-10-09T05:00:41;19.30;99.90
35603;DHT22;21725;50.836;4.368;2023-10-09T05:03:49;19.40;99.90
35603;DHT22;21725;50.836;4.368;2023-10-09T05:07:19;19.40;99.90
35603;DHT22;21725;50.836;4.368;2023-10-09T05:10:40;19.30;99.90
35603;DHT22;21725;50.836;4.368;2023-10-09T05:13:54;19.20;99.90
35603;DHT22;21725;50.836;4.368;2023-10-09T05:17:22;19.20;99.90
35603;DHT22;21725;50.836;4.368;2023-10-09T05:20:34;19.20;99.90
35603;DHT22;21725;50.836;4.368;2023-10-09T05:23:53;19.10;99.90
35603;DHT22;21725;50.836;4.368;2023-10-09T05:27:22;19.10;99.90
35603;DHT22;21725;50.836;4.368;2023-10-09T05:30:56;19.10;99.90
35603;DHT22;21725;50.836;4.368;2023-10-09T05:34:41;19.10;99.90
35603;DHT22;21725;50.836;4.368;2023-10-09T05:38:06;19.00;99.90
35603;DHT22;21725;50.836;4.368;2023-10-09T05:41:31;18.90;99.90
35603;DHT22;21725;50.836;4.368;2023-10-09T05:44:55;18.80;99.90
35603;DHT22;21725;50.836;4.368;2023-10-09T05:48:25;18.80;99.90
35603;DHT22;21725;50.836;4.368;2023-10-09T05:51:31;18.70;99.90
35603;DHT22;21725;50.836;4.368;2023-10-09T05:58:25;18.60;99.90
35603;DHT22;21725;50.836;4.368;2023-10-09T06:01:47;18.70;99.90
35603;DHT22;21725;50.836;4.368;2023-10-09T06:05:14;18.70;99.90
35603;DHT22;21725;50.836;4.368;2023-10-09T06:08:33;18.70;99.90
35603;DHT22;21725;50.836;4.368;2023-10-09T06:11:46;18.70;99.90
35603;DHT22;21725;50.836;4.368;2023-10-09T06:15:19;18.60;99.90
35603;DHT22;21725;50.836;4.368;2023-10-09T06:18:51;18.60;99.90
35603;DHT22;21725;50.836;4.368;2023-10-09T06:22:25;18.70;99.90
35603;DHT22;21725;50.836;4.368;2023-10-09T06:25:47;18.80;99.90
35603;DHT22;21725;50.836;4.368;2023-10-09T06:32:44;18.80;99.90
35603;DHT22;21725;50.836;4.368;2023-10-09T06:36:11;18.80;99.90
35603;DHT22;21725;50.836;4.368;2023-10-09T06:43:11;19.00;99.90
35603;DHT22;21725;50.836;4.368;2023-10-09T06:46:20;19.00;99.90
35603;DHT22;21725;50.836;4.368;2023-10-09T06:49:27;18.90;99.90
35603;DHT22;21725;50.836;4.368;2023-10-09T06:52:51;19.00;99.90
35603;DHT22;21725;50.836;4.368;2023-10-09T06:56:42;19.00;99.90
35603;DHT22;21725;50.836;4.368;2023-10-09T07:00:17;18.90;99.90
35603;DHT22;21725;50.836;4.368;2023-10-09T07:03:39;19.00;99.90
35603;DHT22;21725;50.836;4.368;2023-10-09T07:07:00;18.90;99.90
35603;DHT22;21725;50.836;4.368;2023-10-09T07:13:39;19.10;99.90
35603;DHT22;21725;50.836;4.368;2023-10-09T07:16:47;19.20;99.90
35603;DHT22;21725;50.836;4.368;2023-10-09T07:20:09;19.20;99.90
35603;DHT22;21725;50.836;4.368;2023-10-09T07:23:54;19.20;99.90
35603;DHT22;21725;50.836;4.368;2023-10-09T07:27:21;19.20;99.90
35603;DHT22;21725;50.836;4.368;2023-10-09T07:30:43;19.40;99.90
35603;DHT22;21725;50.836;4.368;2023-10-09T07:33:57;19.30;99.90
35603;DHT22;21725;50.836;4.368;2023-10-09T07:37:09;19.30;99.90
35603;DHT22;21725;50.836;4.368;2023-10-09T07:40:10;19.10;99.90
35603;DHT22;21725;50.836;4.368;2023-10-09T07:43:20;19.10;99.90
35603;DHT22;21725;50.836;4.368;2023-10-09T07:46:26;19.00;99.90
35603;DHT22;21725;50.836;4.368;2023-10-09T07:49:48;19.10;99.90
35603;DHT22;21725;50.836;4.368;2023-10-09T07:52:53;19.20;99.90
35603;DHT22;21725;50.836;4.368;2023-10-09T07:56:14;19.50;99.90
35603;DHT22;21725;50.836;4.368;2023-10-09T07:59:26;19.70;99.90
35603;DHT22;21725;50.836;4.368;2023-10-09T08:02:31;20.00;99.90
35603;DHT22;21725;50.836;4.368;2023-10-09T08:05:42;20.10;99.90
35603;DHT22;21725;50.836;4.368;2023-10-09T08:09:06;19.90;99.90
35603;DHT22;21725;50.836;4.368;2023-10-09T08:12:15;20.00;99.90
35603;DHT22;21725;50.836;4.368;2023-10-09T08:15:35;20.20;99.70
35603;DHT22;21725;50.836;4.368;2023-10-09T08:18:51;20.10;99.80
35603;DHT22;21725;50.836;4.368;2023-10-09T08:22:04;20.10;99.80
35603;DHT22;21725;50.836;4.368;2023-10-09T08:25:24;20.00;99.90
35603;DHT22;21725;50.836;4.368;2023-10-09T08:28:54;19.80;99.90
35603;DHT22;21725;50.836;4.368;2023-10-09T08:32:22;19.90;99.90
35603;DHT22;21725;50.836;4.368;2023-10-09T08:35:38;20.10;99.90
35603;DHT22;21725;50.836;4.368;2023-10-09T08:42:40;20.10;99.90
35603;DHT22;21725;50.836;4.368;2023-10-09T08:49:04;20.30;99.50
35603;DHT22;21725;50.836;4.368;2023-10-09T08:55:51;20.40;99.30
35603;DHT22;21725;50.836;4.368;2023-10-09T08:58:56;20.50;99.20
35603;DHT22;21725;50.836;4.368;2023-10-09T09:02:02;20.60;99.20
35603;DHT22;21725;50.836;4.368;2023-10-09T09:05:30;20.60;99.10
35603;DHT22;21725;50.836;4.368;2023-10-09T09:08:53;21.00;98.70
35603;DHT22;21725;50.836;4.368;2023-10-09T09:12:10;21.20;98.30
35603;DHT22;21725;50.836;4.368;2023-10-09T09:15:37;21.30;98.10
35603;DHT22;21725;50.836;4.368;2023-10-09T09:18:48;21.40;98.00
35603;DHT22;21725;50.836;4.368;2023-10-09T09:21:52;21.40;97.90
35603;DHT22;21725;50.836;4.368;2023-10-09T09:25:04;21.30;98.10
35603;DHT22;21725;50.836;4.368;2023-10-09T09:28:27;21.30;98.00
35603;DHT22;21725;50.836;4.368;2023-10-09T09:31:51;21.50;97.90
35603;DHT22;21725;50.836;4.368;2023-10-09T09:34:57;21.30;98.30
35603;DHT22;21725;50.836;4.368;2023-10-09T09:38:05;21.40;98.20
35603;DHT22;21725;50.836;4.368;2023-10-09T09:41:20;21.40;98.00
35603;DHT22;21725;50.836;4.368;2023-10-09T09:44:33;21.50;98.00
35603;DHT22;21725;50.836;4.368;2023-10-09T09:47:54;21.60;97.80
35603;DHT22;21725;50.836;4.368;2023-10-09T09:51:01;21.70;97.60
35603;DHT22;21725;50.836;4.368;2023-10-09T09:54:12;21.80;97.80
35603;DHT22;21725;50.836;4.368;2023-10-09T09:57:31;22.10;97.20
35603;DHT22;21725;50.836;4.368;2023-10-09T10:00:56;22.30;96.90
35603;DHT22;21725;50.836;4.368;2023-10-09T10:04:16;22.10;97.30
35603;DHT22;21725;50.836;4.368;2023-10-09T10:10:57;21.80;97.80
35603;DHT22;21725;50.836;4.368;2023-10-09T10:14:05;22.00;97.60
35603;DHT22;21725;50.836;4.368;2023-10-09T10:17:22;22.20;97.30
35603;DHT22;21725;50.836;4.368;2023-10-09T10:20:47;22.20;97.00
35603;DHT22;21725;50.836;4.368;2023-10-09T10:24:00;22.10;97.30
35603;DHT22;21725;50.836;4.368;2023-10-09T10:30:31;22.20;97.20
35603;DHT22;21725;50.836;4.368;2023-10-09T10:37:07;21.90;97.60
35603;DHT22;21725;50.836;4.368;2023-10-09T10:40:14;22.20;97.40
35603;DHT22;21725;50.836;4.368;2023-10-09T10:43:41;22.20;97.30
35603;DHT22;21725;50.836;4.368;2023-10-09T10:47:16;22.30;97.20
35603;DHT22;21725;50.836;4.368;2023-10-09T10:50:50;22.40;97.10
35603;DHT22;21725;50.836;4.368;2023-10-09T10:53:57;22.50;97.00
35603;DHT22;21725;50.836;4.368;2023-10-09T10:57:12;22.70;96.40
35603;DHT22;21725;50.836;4.368;2023-10-09T11:00:28;22.80;96.30
35603;DHT22;21725;50.836;4.368;2023-10-09T11:03:50;22.90;96.00
35603;DHT22;21725;50.836;4.368;2023-10-09T11:07:03;22.80;96.30
35603;DHT22;21725;50.836;4.368;2023-10-09T11:10:24;23.00;95.60
35603;DHT22;21725;50.836;4.368;2023-10-09T11:13:38;23.00;95.50
35603;DHT22;21725;50.836;4.368;2023-10-09T11:16:54;23.00;95.60
35603;DHT22;21725;50.836;4.368;2023-10-09T11:20:04;23.00;95.80
35603;DHT22;21725;50.836;4.368;2023-10-09T11:23:26;23.10;95.80
35603;DHT22;21725;50.836;4.368;2023-10-09T11:26:50;23.30;95.30
35603;DHT22;21725;50.836;4.368;2023-10-09T11:30:02;23.30;95.50
35603;DHT22;21725;50.836;4.368;2023-10-09T11:33:26;23.40;95.20
35603;DHT22;21725;50.836;4.368;2023-10-09T11:36:34;23.60;95.00
35603;DHT22;21725;50.836;4.368;2023-10-09T11:39:39;23.40;95.10
35603;DHT22;21725;50.836;4.368;2023-10-09T11:43:00;23.30;95.50
35603;DHT22;21725;50.836;4.368;2023-10-09T11:49:46;23.50;95.50
35603;DHT22;21725;50.836;4.368;2023-10-09T11:53:07;23.40;95.60
35603;DHT22;21725;50.836;4.368;2023-10-09T11:56:23;23.70;95.40
35603;DHT22;21725;50.836;4.368;2023-10-09T11:59:34;23.90;94.70
35603;DHT22;21725;50.836;4.368;2023-10-09T12:03:00;23.90;94.80
35603;DHT22;21725;50.836;4.368;2023-10-09T12:06:07;23.90;94.90
35603;DHT22;21725;50.836;4.368;2023-10-09T12:09:26;24.00;94.80
35603;DHT22;21725;50.836;4.368;2023-10-09T12:12:37;24.10;94.70
35603;DHT22;21725;50.836;4.368;2023-10-09T12:15:40;24.10;94.80
35603;DHT22;21725;50.836;4.368;2023-10-09T12:18:47;24.20;94.40
35603;DHT22;21725;50.836;4.368;2023-10-09T12:21:56;24.20;94.30
35603;DHT22;21725;50.836;4.368;2023-10-09T12:25:11;24.10;94.40
35603;DHT22;21725;50.836;4.368;2023-10-09T12:28:24;24.10;94.30
35603;DHT22;21725;50.836;4.368;2023-10-09T12:31:25;24.00;94.40
35603;DHT22;21725;50.836;4.368;2023-10-09T12:34:34;24.20;94.20
35603;DHT22;21725;50.836;4.368;2023-10-09T12:37:45;24.20;94.30
35603;DHT22;21725;50.836;4.368;2023-10-09T12:41:04;24.30;94.20
35603;DHT22;21725;50.836;4.368;2023-10-09T12:44:30;24.30;94.30
35603;DHT22;21725;50.836;4.368;2023-10-09T12:47:35;24.40;94.30
35603;DHT22;21725;50.836;4.368;2023-10-09T12:50:55;24.30;94.30
35603;DHT22;21725;50.836;4.368;2023-10-09T12:54:05;24.50;93.70
35603;DHT22;21725;50.836;4.368;2023-10-09T12:57:26;24.60;93.60
35603;DHT22;21725;50.836;4.368;2023-10-09T13:00:44;24.50;93.70
35603;DHT22;21725;50.836;4.368;2023-10-09T13:03:53;24.40;93.90
35603;DHT22;21725;50.836;4.368;2023-10-09T13:06:54;24.60;94.00
35603;DHT22;21725;50.836;4.368;2023-10-09T13:10:02;24.40;94.20
35603;DHT22;21725;50.836;4.368;2023-10-09T13:13:15;24.30;94.40
35603;DHT22;21725;50.836;4.368;2023-10-09T13:16:21;24.30;94.50
35603;DHT22;21725;50.836;4.368;2023-10-09T13:19:30;24.30;94.40
35603;DHT22;21725;50.836;4.368;2023-10-09T13:22:43;24.50;94.30
35603;DHT22;21725;50.836;4.368;2023-10-09T13:25:51;24.40;94.40
35603;DHT22;21725;50.836;4.368;2023-10-09T13:28:55;24.60;94.20
35603;DHT22;21725;50.836;4.368;2023-10-09T13:32:01;24.60;94.20
35603;DHT22;21725;50.836;4.368;2023-10-09T13:35:22;24.50;94.40
35603;DHT22;21725;50.836;4.368;2023-10-09T13:38:38;24.50;94.60
35603;DHT22;21725;50.836;4.368;2023-10-09T13:42:20;24.50;94.60
35603;DHT22;21725;50.836;4.368;2023-10-09T13:49:08;24.60;94.70
35603;DHT22;21725;50.836;4.368;2023-10-09T13:52:15;24.60;94.60
35603;DHT22;21725;50.836;4.368;2023-10-09T13:55:20;24.70;94.60
35603;DHT22;21725;50.836;4.368;2023-10-09T14:01:56;24.90;94.30
35603;DHT22;21725;50.836;4.368;2023-10-09T14:05:14;25.00;94.40
35603;DHT22;21725;50.836;4.368;2023-10-09T14:08:24;24.90;94.60
35603;DHT22;21725;50.836;4.368;2023-10-09T14:11:31;24.80;94.80
35603;DHT22;21725;50.836;4.368;2023-10-09T14:14:44;24.60;95.20
35603;DHT22;21725;50.836;4.368;2023-10-09T14:17:54;24.70;95.20
35603;DHT22;21725;50.836;4.368;2023-10-09T14:21:09;24.70;95.00
35603;DHT22;21725;50.836;4.368;2023-10-09T14:27:59;24.70;95.50
35603;DHT22;21725;50.836;4.368;2023-10-09T14:31:03;24.40;95.50
35603;DHT22;21725;50.836;4.368;2023-10-09T14:34:14;24.40;95.50
35603;DHT22;21725;50.836;4.368;2023-10-09T14:37:32;24.30;95.90
35603;DHT22;21725;50.836;4.368;2023-10-09T14:40:35;24.50;95.80
35603;DHT22;21725;50.836;4.368;2023-10-09T14:43:44;24.40;95.80
35603;DHT22;21725;50.836;4.368;2023-10-09T14:46:47;24.60;95.70
35603;DHT22;21725;50.836;4.368;2023-10-09T14:49:52;24.50;95.90
35603;DHT22;21725;50.836;4.368;2023-10-09T14:53:10;24.60;95.80
35603;DHT22;21725;50.836;4.368;2023-10-09T14:56:13;24.60;96.00
35603;DHT22;21725;50.836;4.368;2023-10-09T14:59:16;24.40;96.20
35603;DHT22;21725;50.836;4.368;2023-10-09T15:02:22;24.60;96.10
35603;DHT22;21725;50.836;4.368;2023-10-09T15:05:28;24.40;96.40
35603;DHT22;21725;50.836;4.368;2023-10-09T15:08:34;24.30;96.60
35603;DHT22;21725;50.836;4.368;2023-10-09T15:11:38;24.30;96.70
35603;DHT22;21725;50.836;4.368;2023-10-09T15:14:51;24.50;96.30
35603;DHT22;21725;50.836;4.368;2023-10-09T15:17:57;24.40;96.40
35603;DHT22;21725;50.836;4.368;2023-10-09T15:24:32;24.20;96.70
35603;DHT22;21725;50.836;4.368;2023-10-09T15:27:51;24.00;97.00
35603;DHT22;21725;50.836;4.368;2023-10-09T15:31:00;23.90;97.00
35603;DHT22;21725;50.836;4.368;2023-10-09T15:34:11;23.80;97.10
35603;DHT22;21725;50.836;4.368;2023-10-09T15:40:41;23.80;97.20
35603;DHT22;21725;50.836;4.368;2023-10-09T15:43:57;23.80;97.20
35603;DHT22;21725;50.836;4.368;2023-10-09T15:47:11;23.80;97.20
35603;DHT22;21725;50.836;4.368;2023-10-09T15:50:15;23.70;97.30
35603;DHT22;21725;50.836;4.368;2023-10-09T15:53:19;23.60;97.50
35603;DHT22;21725;50.836;4.368;2023-10-09T15:56:37;23.50;97.70
35603;DHT22;21725;50.836;4.368;2023-10-09T16:02:56;23.50;97.70
35603;DHT22;21725;50.836;4.368;2023-10-09T16:05:57;23.50;97.60
35603;DHT22;21725;50.836;4.368;2023-10-09T16:09:11;23.50;97.80
35603;DHT22;21725;50.836;4.368;2023-10-09T16:12:15;23.30;97.90
35603;DHT22;21725;50.836;4.368;2023-10-09T16:15:19;23.30;97.90
35603;DHT22;21725;50.836;4.368;2023-10-09T16:18:25;23.40;97.90
35603;DHT22;21725;50.836;4.368;2023-10-09T16:24:48;23.30;98.00
35603;DHT22;21725;50.836;4.368;2023-10-09T16:27:52;23.20;98.20
35603;DHT22;21725;50.836;4.368;2023-10-09T16:31:03;23.20;98.20
35603;DHT22;21725;50.836;4.368;2023-10-09T16:34:09;23.20;98.30
35603;DHT22;21725;50.836;4.368;2023-10-09T16:37:16;23.10;98.30
35603;DHT22;21725;50.836;4.368;2023-10-09T16:40:22;23.00;98.50
35603;DHT22;21725;50.836;4.368;2023-10-09T16:43:28;23.10;98.40
35603;DHT22;21725;50.836;4.368;2023-10-09T16:46:50;23.00;98.40
35603;DHT22;21725;50.836;4.368;2023-10-09T16:49:57;23.00;98.40
35603;DHT22;21725;50.836;4.368;2023-10-09T16:53:31;23.10;98.40
35603;DHT22;21725;50.836;4.368;2023-10-09T16:56:55;23.00;98.50
35603;DHT22;21725;50.836;4.368;2023-10-09T17:03:37;22.80;98.70
35603;DHT22;21725;50.836;4.368;2023-10-09T17:06:57;22.70;98.80
35603;DHT22;21725;50.836;4.368;2023-10-09T17:10:01;22.60;98.90
35603;DHT22;21725;50.836;4.368;2023-10-09T17:13:22;22.70;99.00
35603;DHT22;21725;50.836;4.368;2023-10-09T17:16:27;22.80;98.60
35603;DHT22;21725;50.836;4.368;2023-10-09T17:19:29;22.70;98.80
35603;DHT22;21725;50.836;4.368;2023-10-09T17:22:40;22.70;98.80
35603;DHT22;21725;50.836;4.368;2023-10-09T17:25:43;22.50;98.90
35603;DHT22;21725;50.836;4.368;2023-10-09T17:29:00;22.60;98.90
35603;DHT22;21725;50.836;4.368;2023-10-09T17:32:11;22.50;99.00
35603;DHT22;21725;50.836;4.368;2023-10-09T17:35:19;22.40;99.20
35603;DHT22;21725;50.836;4.368;2023-10-09T17:38:23;22.50;99.20
35603;DHT22;21725;50.836;4.368;2023-10-09T17:41:46;22.50;99.20
35603;DHT22;21725;50.836;4.368;2023-10-09T17:45:26;22.40;99.20
35603;DHT22;21725;50.836;4.368;2023-10-09T17:48:33;22.30;99.30
35603;DHT22;21725;50.836;4.368;2023-10-09T17:51:40;22.30;99.40
35603;DHT22;21725;50.836;4.368;2023-10-09T17:54:48;22.30;99.50
35603;DHT22;21725;50.836;4.368;2023-10-09T18:01:11;22.30;99.60
35603;DHT22;21725;50.836;4.368;2023-10-09T18:04:12;22.20;99.50
35603;DHT22;21725;50.836;4.368;2023-10-09T18:07:14;22.20;99.60
35603;DHT22;21725;50.836;4.368;2023-10-09T18:10:19;22.20;99.60
35603;DHT22;21725;50.836;4.368;2023-10-09T18:13:21;22.30;99.60
35603;DHT22;21725;50.836;4.368;2023-10-09T18:16:22;22.30;99.50
35603;DHT22;21725;50.836;4.368;2023-10-09T18:19:23;22.30;99.60
35603;DHT22;21725;50.836;4.368;2023-10-09T18:22:23;22.30;99.60
35603;DHT22;21725;50.836;4.368;2023-10-09T18:25:29;22.20;99.70
35603;DHT22;21725;50.836;4.368;2023-10-09T18:28:29;22.20;99.80
35603;DHT22;21725;50.836;4.368;2023-10-09T18:31:30;22.20;99.80
35603;DHT22;21725;50.836;4.368;2023-10-09T18:34:31;22.20;99.80
35603;DHT22;21725;50.836;4.368;2023-10-09T18:37:31;22.00;99.70
35603;DHT22;21725;50.836;4.368;2023-10-09T18:40:32;22.10;99.80
35603;DHT22;21725;50.836;4.368;2023-10-09T18:43:33;22.10;99.80
35603;DHT22;21725;50.836;4.368;2023-10-09T18:46:35;22.10;99.80
35603;DHT22;21725;50.836;4.368;2023-10-09T18:49:36;22.10;99.80
35603;DHT22;21725;50.836;4.368;2023-10-09T18:52:40;22.10;99.90
35603;DHT22;21725;50.836;4.368;2023-10-09T18:55:43;22.00;99.90
35603;DHT22;21725;50.836;4.368;2023-10-09T18:58:45;22.00;99.90
35603;DHT22;21725;50.836;4.368;2023-10-09T19:01:46;21.90;99.90
35603;DHT22;21725;50.836;4.368;2023-10-09T19:04:47;21.90;99.90
35603;DHT22;21725;50.836;4.368;2023-10-09T19:07:48;21.90;99.90
35603;DHT22;21725;50.836;4.368;2023-10-09T19:10:57;21.80;99.90
35603;DHT22;21725;50.836;4.368;2023-10-09T19:14:01;21.80;99.90
35603;DHT22;21725;50.836;4.368;2023-10-09T19:17:02;21.80;99.90
35603;DHT22;21725;50.836;4.368;2023-10-09T19:20:09;21.80;99.90
35603;DHT22;21725;50.836;4.368;2023-10-09T19:23:23;21.70;99.90
35603;DHT22;21725;50.836;4.368;2023-10-09T19:26:31;21.70;99.90
35603;DHT22;21725;50.836;4.368;2023-10-09T19:29:34;21.60;99.90
35603;DHT22;21725;50.836;4.368;2023-10-09T19:32:55;21.70;99.90
35603;DHT22;21725;50.836;4.368;2023-10-09T19:36:02;21.60;99.90
35603;DHT22;21725;50.836;4.368;2023-10-09T19:39:27;21.60;99.90
35603;DHT22;21725;50.836;4.368;2023-10-09T19:42:34;21.50;99.90
35603;DHT22;21725;50.836;4.368;2023-10-09T19:45:37;21.40;99.90
35603;DHT22;21725;50.836;4.368;2023-10-09T19:48:38;21.40;99.90
35603;DHT22;21725;50.836;4.368;2023-10-09T19:51:39;21.40;99.90
35603;DHT22;21725;50.836;4.368;2023-10-09T20:00:11;21.50;99.90
35603;DHT22;21725;50.836;4.368;2023-10-09T20:03:26;21.00;99.90
35603;DHT22;21725;50.836;4.368;2023-10-09T20:06:31;20.80;99.90
35603;DHT22;21725;50.836;4.368;2023-10-09T20:10:01;20.80;99.90
35603;DHT22;21725;50.836;4.368;2023-10-09T20:13:14;20.90;99.90
35603;DHT22;21725;50.836;4.368;2023-10-09T20:16:21;21.00;99.90
35603;DHT22;21725;50.836;4.368;2023-10-09T20:19:39;21.00;99.90
35603;DHT22;21725;50.836;4.368;2023-10-09T20:23:10;21.10;99.90
35603;DHT22;21725;50.836;4.368;2023-10-09T20:26:21;21.00;99.90
35603;DHT22;21725;50.836;4.368;2023-10-09T20:29:23;21.00;99.90
35603;DHT22;21725;50.836;4.368;2023-10-09T20:32:35;21.00;99.90
35603;DHT22;21725;50.836;4.368;2023-10-09T20:35:41;20.90;99.90
35603;DHT22;21725;50.836;4.368;2023-10-09T20:38:48;20.90;99.90
35603;DHT22;21725;50.836;4.368;2023-10-09T20:41:57;20.80;99.90
35603;DHT22;21725;50.836;4.368;2023-10-09T20:45:15;20.70;99.90
35603;DHT22;21725;50.836;4.368;2023-10-09T20:48:18;20.70;99.90
35603;DHT22;21725;50.836;4.368;2023-10-09T20:51:27;20.70;99.90
35603;DHT22;21725;50.836;4.368;2023-10-09T20:54:46;20.60;99.90
35603;DHT22;21725;50.836;4.368;2023-10-09T20:57:54;20.60;99.90
35603;DHT22;21725;50.836;4.368;2023-10-09T21:01:09;20.50;99.90
35603;DHT22;21725;50.836;4.368;2023-10-09T21:04:30;20.50;99.90
35603;DHT22;21725;50.836;4.368;2023-10-09T21:07:38;20.40;99.90
35603;DHT22;21725;50.836;4.368;2023-10-09T21:11:10;20.50;99.90
35603;DHT22;21725;50.836;4.368;2023-10-09T21:14:11;20.50;99.90
35603;DHT22;21725;50.836;4.368;2023-10-09T21:17:33;20.50;99.90
35603;DHT22;21725;50.836;4.368;2023-10-09T21:20:41;20.50;99.90
35603;DHT22;21725;50.836;4.368;2023-10-09T21:23:45;20.40;99.90
35603;DHT22;21725;50.836;4.368;2023-10-09T21:26:55;20.40;99.90
35603;DHT22;21725;50.836;4.368;2023-10-09T21:29:58;20.40;99.90
35603;DHT22;21725;50.836;4.368;2023-10-09T21:33:12;20.30;99.90
35603;DHT22;21725;50.836;4.368;2023-10-09T21:36:16;20.20;99.90
35603;DHT22;21725;50.836;4.368;2023-10-09T21:39:25;20.10;99.90
35603;DHT22;21725;50.836;4.368;2023-10-09T21:42:28;20.00;99.90
35603;DHT22;21725;50.836;4.368;2023-10-09T21:45:53;19.90;99.90
35603;DHT22;21725;50.836;4.368;2023-10-09T21:49:01;20.00;99.90
35603;DHT22;21725;50.836;4.368;2023-10-09T21:52:22;20.00;99.90
35603;DHT22;21725;50.836;4.368;2023-10-09T21:55:37;20.10;99.90
35603;DHT22;21725;50.836;4.368;2023-10-09T21:59:08;20.10;99.90
35603;DHT22;21725;50.836;4.368;2023-10-09T22:02:26;20.20;99.90
35603;DHT22;21725;50.836;4.368;2023-10-09T22:06:03;20.20;99.90